createdAt,value
2023-04-05T00:04:58.404Z,3.00
2023-04-05T00:10:01.462Z,3.30
2023-04-05T00:15:04.667Z,2.70
2023-04-05T00:20:11.197Z,2.80
2023-04-05T00:25:14.112Z,3.07
2023-04-05T00:30:20.798Z,3.00
2023-04-05T00:35:27.843Z,2.70
2023-04-05T00:40:30.592Z,2.43
2023-04-05T00:45:33.444Z,2.20
2023-04-05T00:50:39.195Z,2.60
2023-04-05T00:55:42.354Z,2.40
2023-04-05T01:00:48.496Z,2.60
2023-04-05T01:06:01.900Z,2.70
2023-04-05T01:11:06.708Z,2.70
2023-04-05T01:16:11.448Z,2.20
2023-04-05T01:21:42.882Z,2.80
2023-04-05T01:26:59.753Z,2.20
2023-04-05T01:32:12.371Z,2.20
2023-04-05T01:37:19.095Z,2.30
2023-04-05T01:42:25.535Z,2.23
2023-04-05T01:47:29.554Z,2.30
2023-04-05T01:52:32.272Z,2.53
2023-04-05T01:57:34.992Z,2.50
2023-04-05T02:02:39.044Z,2.37
2023-04-05T02:07:41.841Z,2.00
2023-04-05T02:12:45.163Z,2.50
2023-04-05T02:17:49.236Z,2.00
2023-04-05T02:22:51.904Z,2.40
2023-04-05T02:27:54.554Z,2.63
2023-04-05T02:32:58.551Z,2.67
2023-04-05T02:38:01.960Z,2.17
2023-04-05T02:43:04.618Z,2.40
2023-04-05T02:48:08.858Z,2.70
2023-04-05T02:53:13.071Z,2.20
2023-04-05T02:58:15.976Z,2.67
2023-04-05T03:03:20.907Z,3.00
2023-04-05T03:08:23.800Z,2.63
2023-04-05T03:13:26.464Z,2.20
2023-04-05T03:18:30.791Z,2.30
2023-04-05T03:23:33.946Z,2.90
2023-04-05T03:28:36.878Z,2.70
2023-04-05T03:33:40.903Z,2.73
2023-04-05T03:38:45.462Z,2.97
2023-04-05T03:43:48.792Z,2.90
2023-04-05T03:48:52.792Z,2.70
2023-04-05T03:53:55.533Z,3.90
2023-04-05T03:58:58.251Z,3.87
2023-04-05T04:04:02.305Z,2.60
2023-04-05T04:09:05.786Z,2.93
2023-04-05T04:14:28.306Z,2.60
2023-04-05T04:20:36.937Z,2.50
2023-04-05T04:25:59.588Z,2.87
2023-04-05T04:31:38.084Z,2.77
2023-04-05T05:31:49.810Z,3.00
2023-04-05T05:36:53.517Z,3.17
2023-04-05T05:41:56.329Z,2.87
2023-04-05T05:47:00.410Z,2.97
2023-04-05T05:52:04.456Z,2.47
2023-04-05T05:57:07.226Z,2.80
2023-04-05T06:02:11.990Z,2.90
2023-04-05T06:07:14.646Z,2.97
2023-04-05T06:12:17.509Z,3.90
2023-04-05T06:17:21.535Z,3.57
2023-04-05T06:22:24.926Z,3.80
2023-04-05T06:27:27.558Z,3.87
2023-04-05T06:32:31.626Z,4.13
2023-04-05T06:37:34.301Z,3.40
2023-04-05T06:42:37.054Z,3.90
2023-04-05T06:47:41.654Z,3.83
2023-04-05T06:52:44.338Z,4.13
2023-04-05T06:57:47.004Z,4.10
2023-04-05T07:02:51.152Z,4.20
2023-04-05T07:07:53.825Z,3.97
2023-04-05T07:12:56.493Z,3.83
2023-04-05T07:18:00.617Z,3.73
2023-04-05T07:23:03.898Z,3.50
2023-04-05T07:28:06.627Z,3.63
2023-04-05T07:33:11.004Z,3.30
2023-04-05T07:38:13.737Z,3.00
2023-04-05T07:43:16.386Z,3.10
2023-04-05T07:48:20.520Z,2.30
2023-04-05T07:53:23.234Z,3.10
2023-04-05T07:58:26.446Z,2.63
2023-04-05T08:03:31.822Z,2.60
2023-04-05T08:08:34.526Z,2.80
2023-04-05T08:13:39.740Z,2.93
2023-04-05T08:18:43.763Z,3.20
2023-04-05T08:23:46.820Z,2.60
2023-04-05T08:28:49.555Z,2.30
2023-04-05T08:33:53.531Z,2.42
2023-04-05T08:38:58.227Z,2.45
2023-04-05T08:44:02.893Z,2.55
2023-04-05T08:49:08.392Z,2.30
2023-04-05T08:54:12.727Z,2.67
2023-04-05T08:59:17.695Z,2.90
2023-04-05T09:04:23.353Z,2.28
2023-04-05T09:09:26.928Z,2.65
2023-04-05T09:14:31.121Z,2.22
2023-04-05T09:19:35.251Z,2.70
2023-04-05T09:24:41.423Z,2.53
2023-04-05T09:29:45.841Z,2.97
2023-04-05T09:34:52.456Z,2.80
2023-04-05T09:40:04.178Z,2.58
2023-04-05T09:45:07.836Z,2.53
2023-04-05T09:50:21.091Z,2.23
2023-04-05T09:55:29.933Z,2.50
2023-04-05T10:00:33.395Z,2.60
2023-04-05T10:05:39.437Z,2.53
2023-04-05T10:10:48.062Z,2.60
2023-04-05T10:15:53.233Z,2.50
2023-04-05T10:20:59.067Z,2.38
2023-04-05T10:26:08.985Z,2.40
2023-04-05T10:31:30.438Z,2.50
2023-04-05T10:36:47.613Z,2.38
2023-04-05T10:41:54.520Z,2.13
2023-04-05T10:46:58.650Z,1.85
2023-04-05T10:52:03.490Z,2.20
2023-04-05T10:57:09.631Z,2.25
2023-04-05T11:02:14.234Z,2.17
2023-04-05T11:07:19.165Z,2.30
2023-04-05T11:12:42.955Z,2.50
2023-04-05T11:17:45.685Z,2.40
2023-04-05T11:22:55.544Z,2.50
2023-04-05T11:28:02.050Z,2.13
2023-04-05T12:05:17.318Z,2.20
2023-04-05T12:10:21.814Z,1.95
2023-04-05T12:15:24.512Z,2.28
2023-04-05T12:20:27.434Z,2.20
2023-04-05T12:25:32.213Z,2.17
2023-04-05T12:30:37.838Z,2.10
2023-04-05T12:35:40.980Z,1.83
2023-04-05T12:40:48.193Z,2.28
2023-04-05T12:45:53.201Z,2.30
2023-04-05T12:50:56.149Z,2.00
2023-04-05T12:56:01.275Z,2.10
2023-04-05T13:01:04.734Z,2.25
2023-04-05T13:06:07.840Z,1.92
2023-04-05T13:11:12.407Z,2.38
2023-04-05T13:16:15.149Z,2.10
2023-04-05T13:21:17.902Z,2.08
2023-04-05T13:26:21.998Z,1.90
2023-04-05T13:31:24.848Z,1.85
2023-04-05T13:36:27.657Z,2.45
2023-04-05T13:41:31.696Z,1.80
2023-04-05T13:46:34.465Z,1.80
2023-04-05T13:51:41.259Z,1.80
2023-04-05T13:56:45.398Z,2.10
2023-04-05T14:01:48.321Z,2.30
2023-04-05T14:06:51.228Z,1.90
2023-04-05T14:11:56.393Z,1.90
2023-04-05T14:16:59.089Z,2.20
2023-04-05T14:22:02.039Z,2.00
2023-04-05T14:27:06.154Z,2.40
2023-04-05T14:32:08.877Z,2.10
2023-04-05T14:37:11.880Z,2.40
2023-04-05T14:42:16.203Z,1.90
2023-04-05T14:47:19.122Z,2.47
2023-04-05T14:52:22.013Z,1.80
2023-04-05T14:57:26.126Z,1.90
2023-04-05T15:02:29.234Z,1.70
2023-04-05T15:07:33.253Z,1.90
2023-04-05T15:12:37.387Z,1.83
2023-04-05T15:17:40.112Z,1.97
2023-04-05T15:22:42.835Z,1.70
2023-04-05T15:27:46.944Z,2.17
2023-04-05T15:32:49.686Z,2.10
2023-04-05T15:37:55.541Z,2.10
2023-04-05T15:43:00.187Z,1.88
2023-04-05T15:48:02.954Z,1.70
2023-04-05T15:53:05.783Z,2.03
2023-04-05T15:58:10.021Z,1.83
2023-04-05T16:03:12.746Z,2.00
2023-04-05T16:08:15.772Z,1.97
2023-04-05T16:13:19.915Z,2.10
2023-04-05T16:18:23.904Z,1.90
2023-04-05T16:23:26.674Z,2.07
2023-04-05T16:28:31.168Z,1.63
2023-04-05T16:33:33.884Z,1.60
2023-04-05T16:38:36.699Z,1.87
2023-04-05T16:43:40.835Z,2.03
2023-04-05T16:48:43.520Z,1.90
2023-04-05T16:53:46.287Z,1.80
2023-04-05T16:58:51.241Z,1.97
2023-04-05T17:03:54.045Z,2.20
2023-04-05T17:08:59.475Z,1.80
2023-04-05T17:14:03.591Z,2.03
2023-04-05T17:19:06.438Z,2.00
2023-04-05T17:24:09.784Z,1.77
2023-04-05T17:29:14.143Z,2.00
2023-04-05T17:34:17.046Z,1.90
2023-04-05T17:39:19.863Z,1.53
2023-04-05T17:44:24.149Z,2.20
2023-04-05T17:49:27.058Z,1.67
2023-04-05T17:54:30.029Z,1.70
2023-04-05T17:59:37.809Z,1.87
2023-04-05T18:04:41.727Z,1.77
2023-04-05T18:09:45.959Z,1.97
2023-04-05T18:14:52.579Z,1.90
2023-04-05T19:24:03.935Z,3.63
2023-04-05T19:29:07.177Z,4.30
2023-04-05T19:34:10.432Z,4.30
2023-04-05T21:19:08.728Z,5.07
2023-04-05T21:24:12.918Z,5.17
2023-04-05T21:29:15.598Z,4.90
2023-04-05T21:34:18.250Z,5.63
2023-04-05T21:39:22.229Z,5.37
2023-04-05T21:44:25.058Z,5.63
2023-04-05T21:49:27.732Z,5.03
2023-04-05T21:54:31.722Z,4.87
2023-04-05T21:59:34.485Z,4.90
2023-04-05T22:04:37.171Z,4.60
2023-04-05T22:09:41.345Z,4.40
2023-04-05T22:14:44.038Z,4.27
2023-04-05T22:19:47.544Z,4.80
2023-04-05T22:24:51.553Z,5.17
2023-04-05T22:29:54.673Z,5.37
2023-04-05T22:34:57.372Z,5.80
2023-04-05T22:40:01.513Z,4.73
2023-04-05T22:45:04.361Z,4.97
2023-04-05T22:50:08.203Z,4.70
2023-04-05T22:55:12.531Z,4.83
2023-04-05T23:00:16.244Z,4.77
2023-04-05T23:05:18.952Z,4.77
2023-04-05T23:10:23.039Z,4.47
2023-04-05T23:15:25.704Z,4.60
2023-04-05T23:20:28.365Z,4.30
2023-04-05T23:25:32.348Z,4.10
2023-04-05T23:30:35.252Z,4.87
2023-04-05T23:35:38.328Z,5.03
2023-04-05T23:40:42.417Z,4.47
2023-04-05T23:45:45.386Z,4.80
2023-04-05T23:50:48.397Z,4.67
2023-04-05T23:55:53.369Z,4.63
